sensor_id;sensor_type;location;lat;lon;timestamp;P1;durP1;ratioP1;P2;durP2;ratioP2
55290;SDS011;41155;39.768;2.712;2023-04-01T00:02:06;21.27;;;9.18;;
55290;SDS011;41155;39.768;2.712;2023-04-01T00:04:32;14.02;;;8.23;;
55290;SDS011;41155;39.768;2.712;2023-04-01T00:06:58;21.85;;;8.27;;
55290;SDS011;41155;39.768;2.712;2023-04-01T00:09:25;20.98;;;8.73;;
55290;SDS011;41155;39.768;2.712;2023-04-01T00:11:50;16.80;;;7.75;;
55290;SDS011;41155;39.768;2.712;2023-04-01T00:14:16;12.93;;;7.93;;
55290;SDS011;41155;39.768;2.712;2023-04-01T00:16:41;13.93;;;7.68;;
55290;SDS011;41155;39.768;2.712;2023-04-01T00:19:07;14.75;;;8.05;;
55290;SDS011;41155;39.768;2.712;2023-04-01T00:21:32;15.27;;;7.20;;
55290;SDS011;41155;39.768;2.712;2023-04-01T00:23:58;17.27;;;7.22;;
55290;SDS011;41155;39.768;2.712;2023-04-01T00:26:24;22.13;;;7.40;;
55290;SDS011;41155;39.768;2.712;2023-04-01T00:28:50;12.00;;;7.18;;
55290;SDS011;41155;39.768;2.712;2023-04-01T00:31:15;23.95;;;7.95;;
55290;SDS011;41155;39.768;2.712;2023-04-01T00:33:41;14.23;;;6.88;;
55290;SDS011;41155;39.768;2.712;2023-04-01T00:36:14;17.95;;;7.07;;
55290;SDS011;41155;39.768;2.712;2023-04-01T00:38:42;14.23;;;7.18;;
55290;SDS011;41155;39.768;2.712;2023-04-01T00:41:09;15.93;;;7.47;;
55290;SDS011;41155;39.768;2.712;2023-04-01T00:43:39;16.13;;;7.07;;
55290;SDS011;41155;39.768;2.712;2023-04-01T00:46:08;15.25;;;7.90;;
55290;SDS011;41155;39.768;2.712;2023-04-01T00:48:34;22.15;;;11.13;;
55290;SDS011;41155;39.768;2.712;2023-04-01T00:51:11;14.88;;;9.77;;
55290;SDS011;41155;39.768;2.712;2023-04-01T00:53:45;25.10;;;10.93;;
55290;SDS011;41155;39.768;2.712;2023-04-01T00:56:14;20.17;;;10.45;;
55290;SDS011;41155;39.768;2.712;2023-04-01T00:58:51;27.27;;;10.45;;
55290;SDS011;41155;39.768;2.712;2023-04-01T01:01:20;24.63;;;11.50;;
55290;SDS011;41155;39.768;2.712;2023-04-01T01:03:48;24.05;;;11.43;;
55290;SDS011;41155;39.768;2.712;2023-04-01T01:06:19;29.95;;;9.45;;
55290;SDS011;41155;39.768;2.712;2023-04-01T01:09:03;21.67;;;7.25;;
55290;SDS011;41155;39.768;2.712;2023-04-01T01:17:42;14.75;;;7.00;;
55290;SDS011;41155;39.768;2.712;2023-04-01T01:20:12;15.48;;;8.38;;
55290;SDS011;41155;39.768;2.712;2023-04-01T01:22:52;13.80;;;7.53;;
55290;SDS011;41155;39.768;2.712;2023-04-01T01:28:11;14.55;;;7.40;;
55290;SDS011;41155;39.768;2.712;2023-04-01T01:36:33;18.45;;;8.65;;
55290;SDS011;41155;39.768;2.712;2023-04-01T01:39:03;15.45;;;8.63;;
55290;SDS011;41155;39.768;2.712;2023-04-01T01:41:31;20.55;;;7.10;;
55290;SDS011;41155;39.768;2.712;2023-04-01T01:43:58;17.30;;;7.53;;
55290;SDS011;41155;39.768;2.712;2023-04-01T01:46:27;18.30;;;8.02;;
55290;SDS011;41155;39.768;2.712;2023-04-01T01:48:55;16.58;;;6.97;;
55290;SDS011;41155;39.768;2.712;2023-04-01T01:51:24;21.92;;;7.78;;
55290;SDS011;41155;39.768;2.712;2023-04-01T01:53:52;15.77;;;6.38;;
55290;SDS011;41155;39.768;2.712;2023-04-01T01:56:18;17.33;;;6.45;;
55290;SDS011;41155;39.768;2.712;2023-04-01T01:58:48;22.73;;;6.88;;
55290;SDS011;41155;39.768;2.712;2023-04-01T02:01:18;14.48;;;6.40;;
55290;SDS011;41155;39.768;2.712;2023-04-01T02:03:49;11.48;;;6.75;;
55290;SDS011;41155;39.768;2.712;2023-04-01T02:06:17;13.27;;;6.43;;
55290;SDS011;41155;39.768;2.712;2023-04-01T02:08:47;14.60;;;6.43;;
55290;SDS011;41155;39.768;2.712;2023-04-01T02:11:24;13.48;;;5.97;;
55290;SDS011;41155;39.768;2.712;2023-04-01T02:16:34;16.20;;;7.20;;
55290;SDS011;41155;39.768;2.712;2023-04-01T02:19:05;13.60;;;6.30;;
55290;SDS011;41155;39.768;2.712;2023-04-01T02:21:34;17.25;;;7.15;;
55290;SDS011;41155;39.768;2.712;2023-04-01T02:24:02;12.50;;;6.50;;
55290;SDS011;41155;39.768;2.712;2023-04-01T02:26:31;19.23;;;6.30;;
55290;SDS011;41155;39.768;2.712;2023-04-01T02:28:56;15.55;;;6.57;;
55290;SDS011;41155;39.768;2.712;2023-04-01T02:31:24;20.13;;;6.65;;
55290;SDS011;41155;39.768;2.712;2023-04-01T02:33:50;12.93;;;6.30;;
55290;SDS011;41155;39.768;2.712;2023-04-01T02:36:17;13.25;;;7.38;;
55290;SDS011;41155;39.768;2.712;2023-04-01T02:38:43;13.77;;;6.97;;
55290;SDS011;41155;39.768;2.712;2023-04-01T02:41:10;15.23;;;7.03;;
55290;SDS011;41155;39.768;2.712;2023-04-01T02:43:36;15.38;;;7.65;;
55290;SDS011;41155;39.768;2.712;2023-04-01T02:46:02;16.58;;;8.02;;
55290;SDS011;41155;39.768;2.712;2023-04-01T02:48:28;17.05;;;7.90;;
55290;SDS011;41155;39.768;2.712;2023-04-01T02:50:54;24.00;;;7.57;;
55290;SDS011;41155;39.768;2.712;2023-04-01T02:53:19;26.33;;;8.68;;
55290;SDS011;41155;39.768;2.712;2023-04-01T02:55:45;21.70;;;8.02;;
55290;SDS011;41155;39.768;2.712;2023-04-01T02:58:11;20.90;;;8.32;;
55290;SDS011;41155;39.768;2.712;2023-04-01T03:00:37;14.50;;;7.03;;
55290;SDS011;41155;39.768;2.712;2023-04-01T03:03:03;18.25;;;7.43;;
55290;SDS011;41155;39.768;2.712;2023-04-01T03:05:29;11.18;;;6.70;;
55290;SDS011;41155;39.768;2.712;2023-04-01T03:07:55;18.90;;;7.25;;
55290;SDS011;41155;39.768;2.712;2023-04-01T03:10:21;18.23;;;6.55;;
55290;SDS011;41155;39.768;2.712;2023-04-01T03:12:46;21.08;;;6.97;;
55290;SDS011;41155;39.768;2.712;2023-04-01T03:15:12;21.70;;;6.70;;
55290;SDS011;41155;39.768;2.712;2023-04-01T03:17:40;19.08;;;7.00;;
55290;SDS011;41155;39.768;2.712;2023-04-01T03:20:06;19.23;;;6.57;;
55290;SDS011;41155;39.768;2.712;2023-04-01T03:22:33;24.52;;;7.15;;
55290;SDS011;41155;39.768;2.712;2023-04-01T03:25:00;19.40;;;6.38;;
55290;SDS011;41155;39.768;2.712;2023-04-01T03:27:29;19.27;;;6.97;;
55290;SDS011;41155;39.768;2.712;2023-04-01T03:29:55;14.88;;;6.82;;
55290;SDS011;41155;39.768;2.712;2023-04-01T03:32:20;16.27;;;6.82;;
55290;SDS011;41155;39.768;2.712;2023-04-01T03:34:46;20.58;;;6.80;;
55290;SDS011;41155;39.768;2.712;2023-04-01T03:37:11;10.82;;;6.53;;
55290;SDS011;41155;39.768;2.712;2023-04-01T03:39:37;15.27;;;7.55;;
55290;SDS011;41155;39.768;2.712;2023-04-01T03:42:03;15.80;;;6.68;;
55290;SDS011;41155;39.768;2.712;2023-04-01T03:44:32;17.13;;;6.60;;
55290;SDS011;41155;39.768;2.712;2023-04-01T03:46:58;19.42;;;7.13;;
55290;SDS011;41155;39.768;2.712;2023-04-01T03:49:23;27.80;;;7.13;;
55290;SDS011;41155;39.768;2.712;2023-04-01T03:51:49;13.90;;;7.13;;
55290;SDS011;41155;39.768;2.712;2023-04-01T03:54:14;20.35;;;7.78;;
55290;SDS011;41155;39.768;2.712;2023-04-01T03:56:40;20.42;;;7.55;;
55290;SDS011;41155;39.768;2.712;2023-04-01T03:59:06;14.18;;;6.82;;
55290;SDS011;41155;39.768;2.712;2023-04-01T04:01:32;18.80;;;7.03;;
55290;SDS011;41155;39.768;2.712;2023-04-01T04:03:58;12.73;;;7.45;;
55290;SDS011;41155;39.768;2.712;2023-04-01T04:06:24;14.20;;;7.00;;
55290;SDS011;41155;39.768;2.712;2023-04-01T04:08:51;17.75;;;7.70;;
55290;SDS011;41155;39.768;2.712;2023-04-01T04:11:16;14.57;;;7.25;;
55290;SDS011;41155;39.768;2.712;2023-04-01T04:13:43;13.25;;;6.63;;
55290;SDS011;41155;39.768;2.712;2023-04-01T04:16:09;16.27;;;7.20;;
55290;SDS011;41155;39.768;2.712;2023-04-01T04:18:36;24.35;;;8.38;;
55290;SDS011;41155;39.768;2.712;2023-04-01T04:21:02;15.90;;;8.02;;
55290;SDS011;41155;39.768;2.712;2023-04-01T04:23:28;16.67;;;7.28;;
55290;SDS011;41155;39.768;2.712;2023-04-01T04:26:08;21.40;;;7.68;;
55290;SDS011;41155;39.768;2.712;2023-04-01T04:28:36;20.85;;;7.43;;
55290;SDS011;41155;39.768;2.712;2023-04-01T04:31:04;32.13;;;7.53;;
55290;SDS011;41155;39.768;2.712;2023-04-01T04:33:31;26.20;;;7.80;;
55290;SDS011;41155;39.768;2.712;2023-04-01T04:35:57;19.95;;;7.93;;
55290;SDS011;41155;39.768;2.712;2023-04-01T04:38:24;32.28;;;7.25;;
55290;SDS011;41155;39.768;2.712;2023-04-01T04:40:50;18.45;;;8.25;;
55290;SDS011;41155;39.768;2.712;2023-04-01T04:43:16;20.83;;;8.85;;
55290;SDS011;41155;39.768;2.712;2023-04-01T04:45:43;20.00;;;7.47;;
55290;SDS011;41155;39.768;2.712;2023-04-01T04:48:09;16.85;;;8.63;;
55290;SDS011;41155;39.768;2.712;2023-04-01T04:50:41;24.08;;;9.32;;
55290;SDS011;41155;39.768;2.712;2023-04-01T04:53:11;21.75;;;9.15;;
55290;SDS011;41155;39.768;2.712;2023-04-01T04:55:37;22.63;;;9.15;;
55290;SDS011;41155;39.768;2.712;2023-04-01T04:58:02;16.30;;;8.88;;
55290;SDS011;41155;39.768;2.712;2023-04-01T05:00:28;23.20;;;9.50;;
55290;SDS011;41155;39.768;2.712;2023-04-01T05:02:53;19.48;;;9.18;;
55290;SDS011;41155;39.768;2.712;2023-04-01T05:05:19;20.08;;;8.88;;
55290;SDS011;41155;39.768;2.712;2023-04-01T05:07:44;25.08;;;11.38;;
55290;SDS011;41155;39.768;2.712;2023-04-01T05:10:10;26.60;;;9.52;;
55290;SDS011;41155;39.768;2.712;2023-04-01T05:12:35;24.77;;;9.23;;
55290;SDS011;41155;39.768;2.712;2023-04-01T05:15:04;29.48;;;8.82;;
55290;SDS011;41155;39.768;2.712;2023-04-01T05:17:30;32.33;;;9.60;;
55290;SDS011;41155;39.768;2.712;2023-04-01T05:19:56;28.02;;;10.20;;
55290;SDS011;41155;39.768;2.712;2023-04-01T05:22:21;40.40;;;11.77;;
55290;SDS011;41155;39.768;2.712;2023-04-01T05:24:47;23.95;;;10.27;;
55290;SDS011;41155;39.768;2.712;2023-04-01T05:27:12;23.38;;;10.00;;
55290;SDS011;41155;39.768;2.712;2023-04-01T05:29:38;24.50;;;10.10;;
55290;SDS011;41155;39.768;2.712;2023-04-01T05:32:03;25.60;;;9.73;;
55290;SDS011;41155;39.768;2.712;2023-04-01T05:34:29;17.88;;;8.88;;
55290;SDS011;41155;39.768;2.712;2023-04-01T05:36:54;26.55;;;10.43;;
55290;SDS011;41155;39.768;2.712;2023-04-01T05:39:20;25.98;;;11.10;;
55290;SDS011;41155;39.768;2.712;2023-04-01T05:41:45;28.60;;;9.50;;
55290;SDS011;41155;39.768;2.712;2023-04-01T05:44:11;29.02;;;10.63;;
55290;SDS011;41155;39.768;2.712;2023-04-01T05:46:37;42.92;;;12.88;;
55290;SDS011;41155;39.768;2.712;2023-04-01T05:49:03;30.25;;;12.27;;
55290;SDS011;41155;39.768;2.712;2023-04-01T05:51:28;37.85;;;13.10;;
55290;SDS011;41155;39.768;2.712;2023-04-01T05:53:54;28.70;;;10.52;;
55290;SDS011;41155;39.768;2.712;2023-04-01T05:56:19;35.97;;;12.82;;
55290;SDS011;41155;39.768;2.712;2023-04-01T05:58:46;39.50;;;13.15;;
55290;SDS011;41155;39.768;2.712;2023-04-01T06:01:16;37.60;;;13.45;;
55290;SDS011;41155;39.768;2.712;2023-04-01T06:03:43;102.97;;;55.90;;
55290;SDS011;41155;39.768;2.712;2023-04-01T06:06:11;85.50;;;39.75;;
55290;SDS011;41155;39.768;2.712;2023-04-01T06:08:40;43.65;;;20.88;;
55290;SDS011;41155;39.768;2.712;2023-04-01T06:21:59;48.33;;;18.98;;
55290;SDS011;41155;39.768;2.712;2023-04-01T06:46:52;54.83;;;20.13;;
55290;SDS011;41155;39.768;2.712;2023-04-01T06:49:36;46.75;;;19.55;;
55290;SDS011;41155;39.768;2.712;2023-04-01T06:57:46;62.67;;;24.88;;
55290;SDS011;41155;39.768;2.712;2023-04-01T07:00:31;70.88;;;22.02;;
55290;SDS011;41155;39.768;2.712;2023-04-01T07:05:45;56.08;;;19.45;;
55290;SDS011;41155;39.768;2.712;2023-04-01T07:08:16;51.97;;;18.85;;
55290;SDS011;41155;39.768;2.712;2023-04-01T07:10:53;95.53;;;45.60;;
55290;SDS011;41155;39.768;2.712;2023-04-01T07:13:24;64.30;;;28.95;;
55290;SDS011;41155;39.768;2.712;2023-04-01T07:18:41;136.02;;;76.72;;
55290;SDS011;41155;39.768;2.712;2023-04-01T07:21:20;109.22;;;65.22;;
55290;SDS011;41155;39.768;2.712;2023-04-01T07:23:50;65.68;;;22.33;;
55290;SDS011;41155;39.768;2.712;2023-04-01T07:26:20;38.53;;;16.10;;
55290;SDS011;41155;39.768;2.712;2023-04-01T07:28:48;45.83;;;17.10;;
55290;SDS011;41155;39.768;2.712;2023-04-01T07:36:45;35.63;;;15.63;;
55290;SDS011;41155;39.768;2.712;2023-04-01T07:42:02;38.53;;;14.18;;
55290;SDS011;41155;39.768;2.712;2023-04-01T07:44:47;42.47;;;13.70;;
55290;SDS011;41155;39.768;2.712;2023-04-01T07:47:23;37.90;;;16.25;;
55290;SDS011;41155;39.768;2.712;2023-04-01T07:55:14;37.38;;;13.45;;
55290;SDS011;41155;39.768;2.712;2023-04-01T08:01:03;37.63;;;14.32;;
55290;SDS011;41155;39.768;2.712;2023-04-01T08:14:43;29.05;;;13.20;;
55290;SDS011;41155;39.768;2.712;2023-04-01T08:17:20;36.53;;;13.73;;
55290;SDS011;41155;39.768;2.712;2023-04-01T08:25:16;27.25;;;12.50;;
55290;SDS011;41155;39.768;2.712;2023-04-01T08:33:15;41.45;;;18.42;;
55290;SDS011;41155;39.768;2.712;2023-04-01T08:35:52;38.17;;;16.35;;
55290;SDS011;41155;39.768;2.712;2023-04-01T08:38:24;41.17;;;16.07;;
55290;SDS011;41155;39.768;2.712;2023-04-01T08:41:39;56.45;;;25.65;;
55290;SDS011;41155;39.768;2.712;2023-04-01T08:52:35;34.78;;;14.13;;
55290;SDS011;41155;39.768;2.712;2023-04-01T08:58:26;38.30;;;13.57;;
55290;SDS011;41155;39.768;2.712;2023-04-01T09:00:44;44.90;;;13.52;;
55290;SDS011;41155;39.768;2.712;2023-04-01T09:09:00;39.42;;;14.85;;
55290;SDS011;41155;39.768;2.712;2023-04-01T09:12:15;33.47;;;13.10;;
55290;SDS011;41155;39.768;2.712;2023-04-01T09:32:12;36.50;;;14.40;;
55290;SDS011;41155;39.768;2.712;2023-04-01T09:52:58;36.72;;;13.43;;
55290;SDS011;41155;39.768;2.712;2023-04-01T10:22:35;35.47;;;12.73;;
55290;SDS011;41155;39.768;2.712;2023-04-01T10:54:47;26.52;;;11.25;;
55290;SDS011;41155;39.768;2.712;2023-04-01T11:11:51;41.13;;;12.60;;
55290;SDS011;41155;39.768;2.712;2023-04-01T11:33:38;36.00;;;12.45;;
55290;SDS011;41155;39.768;2.712;2023-04-01T11:44:20;33.67;;;11.52;;
55290;SDS011;41155;39.768;2.712;2023-04-01T11:57:51;32.10;;;12.32;;
55290;SDS011;41155;39.768;2.712;2023-04-01T12:03:59;34.88;;;12.82;;
55290;SDS011;41155;39.768;2.712;2023-04-01T12:33:10;28.77;;;10.55;;
55290;SDS011;41155;39.768;2.712;2023-04-01T12:44:11;29.73;;;11.68;;
55290;SDS011;41155;39.768;2.712;2023-04-01T13:03:46;40.38;;;12.70;;
55290;SDS011;41155;39.768;2.712;2023-04-01T13:16:53;34.08;;;10.60;;
55290;SDS011;41155;39.768;2.712;2023-04-01T13:25:20;27.85;;;10.70;;
55290;SDS011;41155;39.768;2.712;2023-04-01T13:28:19;29.05;;;11.85;;
55290;SDS011;41155;39.768;2.712;2023-04-01T13:38:25;35.60;;;11.85;;
55290;SDS011;41155;39.768;2.712;2023-04-01T13:44:20;24.90;;;10.90;;
55290;SDS011;41155;39.768;2.712;2023-04-01T14:11:53;28.55;;;9.02;;
55290;SDS011;41155;39.768;2.712;2023-04-01T14:33:31;23.23;;;9.20;;
55290;SDS011;41155;39.768;2.712;2023-04-01T14:47:50;22.85;;;8.73;;
55290;SDS011;41155;39.768;2.712;2023-04-01T14:50:27;34.65;;;9.57;;
55290;SDS011;41155;39.768;2.712;2023-04-01T15:03:22;25.17;;;9.57;;
55290;SDS011;41155;39.768;2.712;2023-04-01T15:05:52;18.50;;;8.55;;
55290;SDS011;41155;39.768;2.712;2023-04-01T15:08:27;24.58;;;9.50;;
55290;SDS011;41155;39.768;2.712;2023-04-01T15:27:13;23.58;;;8.65;;
55290;SDS011;41155;39.768;2.712;2023-04-01T15:43:26;37.42;;;9.50;;
55290;SDS011;41155;39.768;2.712;2023-04-01T16:16:00;18.10;;;8.43;;
55290;SDS011;41155;39.768;2.712;2023-04-01T16:18:50;24.23;;;7.53;;
55290;SDS011;41155;39.768;2.712;2023-04-01T16:21:48;19.63;;;8.30;;
55290;SDS011;41155;39.768;2.712;2023-04-01T16:24:30;31.42;;;8.45;;
55290;SDS011;41155;39.768;2.712;2023-04-01T16:32:23;16.45;;;8.68;;
55290;SDS011;41155;39.768;2.712;2023-04-01T16:37:46;21.70;;;8.25;;
55290;SDS011;41155;39.768;2.712;2023-04-01T16:40:20;24.38;;;8.38;;
55290;SDS011;41155;39.768;2.712;2023-04-01T16:57:19;24.33;;;8.88;;
55290;SDS011;41155;39.768;2.712;2023-04-01T17:02:45;20.30;;;8.65;;
55290;SDS011;41155;39.768;2.712;2023-04-01T17:05:17;25.60;;;9.60;;
55290;SDS011;41155;39.768;2.712;2023-04-01T17:13:34;23.27;;;9.38;;
55290;SDS011;41155;39.768;2.712;2023-04-01T17:30:24;24.25;;;9.77;;
55290;SDS011;41155;39.768;2.712;2023-04-01T17:35:27;39.88;;;19.45;;
55290;SDS011;41155;39.768;2.712;2023-04-01T17:53:32;34.72;;;13.05;;
55290;SDS011;41155;39.768;2.712;2023-04-01T17:56:11;28.77;;;11.15;;
55290;SDS011;41155;39.768;2.712;2023-04-01T17:58:45;30.58;;;11.50;;
55290;SDS011;41155;39.768;2.712;2023-04-01T18:23:56;130.98;;;77.22;;
55290;SDS011;41155;39.768;2.712;2023-04-01T18:26:27;65.85;;;30.13;;
55290;SDS011;41155;39.768;2.712;2023-04-01T18:31:26;53.38;;;24.90;;
55290;SDS011;41155;39.768;2.712;2023-04-01T18:34:12;89.80;;;53.28;;
55290;SDS011;41155;39.768;2.712;2023-04-01T18:36:51;227.43;;;135.07;;
55290;SDS011;41155;39.768;2.712;2023-04-01T18:39:37;269.42;;;164.15;;
55290;SDS011;41155;39.768;2.712;2023-04-01T18:44:51;293.33;;;192.10;;
55290;SDS011;41155;39.768;2.712;2023-04-01T18:50:28;126.97;;;76.25;;
55290;SDS011;41155;39.768;2.712;2023-04-01T18:53:28;65.47;;;29.95;;
55290;SDS011;41155;39.768;2.712;2023-04-01T18:56:01;49.95;;;24.08;;
55290;SDS011;41155;39.768;2.712;2023-04-01T19:09:00;35.50;;;12.73;;
55290;SDS011;41155;39.768;2.712;2023-04-01T19:20:30;30.92;;;15.85;;
55290;SDS011;41155;39.768;2.712;2023-04-01T19:26:03;29.20;;;11.93;;
55290;SDS011;41155;39.768;2.712;2023-04-01T19:37:10;26.40;;;11.27;;
55290;SDS011;41155;39.768;2.712;2023-04-01T19:40:16;39.15;;;11.77;;
55290;SDS011;41155;39.768;2.712;2023-04-01T19:54:02;49.03;;;17.85;;
55290;SDS011;41155;39.768;2.712;2023-04-01T19:56:50;40.20;;;15.32;;
55290;SDS011;41155;39.768;2.712;2023-04-01T19:59:22;37.50;;;16.83;;
55290;SDS011;41155;39.768;2.712;2023-04-01T20:04:36;42.15;;;15.50;;
55290;SDS011;41155;39.768;2.712;2023-04-01T20:07:09;42.15;;;17.73;;
55290;SDS011;41155;39.768;2.712;2023-04-01T20:09:53;33.85;;;15.40;;
55290;SDS011;41155;39.768;2.712;2023-04-01T20:14:57;36.03;;;17.05;;
55290;SDS011;41155;39.768;2.712;2023-04-01T20:20:14;47.17;;;17.83;;
55290;SDS011;41155;39.768;2.712;2023-04-01T20:25:21;30.52;;;12.00;;
55290;SDS011;41155;39.768;2.712;2023-04-01T20:28:02;25.90;;;10.15;;
55290;SDS011;41155;39.768;2.712;2023-04-01T20:56:01;49.20;;;12.02;;
55290;SDS011;41155;39.768;2.712;2023-04-01T20:58:13;31.75;;;11.60;;
55290;SDS011;41155;39.768;2.712;2023-04-01T21:06:39;35.03;;;10.40;;
55290;SDS011;41155;39.768;2.712;2023-04-01T21:09:41;24.55;;;10.00;;
55290;SDS011;41155;39.768;2.712;2023-04-01T21:12:39;34.22;;;11.75;;
55290;SDS011;41155;39.768;2.712;2023-04-01T21:21:09;39.53;;;9.85;;
55290;SDS011;41155;39.768;2.712;2023-04-01T21:48:16;40.53;;;10.75;;
55290;SDS011;41155;39.768;2.712;2023-04-01T21:51:19;26.48;;;8.80;;
55290;SDS011;41155;39.768;2.712;2023-04-01T21:54:21;23.90;;;9.38;;
55290;SDS011;41155;39.768;2.712;2023-04-01T22:17:38;33.22;;;7.28;;
55290;SDS011;41155;39.768;2.712;2023-04-01T22:25:39;16.30;;;6.22;;
55290;SDS011;41155;39.768;2.712;2023-04-01T22:28:27;20.85;;;6.20;;
55290;SDS011;41155;39.768;2.712;2023-04-01T22:31:00;19.88;;;6.07;;
55290;SDS011;41155;39.768;2.712;2023-04-01T22:39:02;19.40;;;5.63;;
55290;SDS011;41155;39.768;2.712;2023-04-01T22:44:02;11.18;;;5.40;;
55290;SDS011;41155;39.768;2.712;2023-04-01T22:46:49;14.75;;;5.68;;
55290;SDS011;41155;39.768;2.712;2023-04-01T22:49:29;28.10;;;7.55;;
55290;SDS011;41155;39.768;2.712;2023-04-01T22:54:48;19.95;;;7.20;;
55290;SDS011;41155;39.768;2.712;2023-04-01T22:57:32;25.05;;;7.53;;
55290;SDS011;41155;39.768;2.712;2023-04-01T23:05:48;16.92;;;5.57;;
55290;SDS011;41155;39.768;2.712;2023-04-01T23:08:30;8.98;;;4.72;;
55290;SDS011;41155;39.768;2.712;2023-04-01T23:13:52;12.45;;;4.97;;
55290;SDS011;41155;39.768;2.712;2023-04-01T23:16:25;12.20;;;4.45;;
55290;SDS011;41155;39.768;2.712;2023-04-01T23:18:57;16.92;;;5.20;;
55290;SDS011;41155;39.768;2.712;2023-04-01T23:21:35;14.65;;;4.88;;
55290;SDS011;41155;39.768;2.712;2023-04-01T23:26:50;17.80;;;5.65;;
55290;SDS011;41155;39.768;2.712;2023-04-01T23:29:20;23.63;;;5.50;;
55290;SDS011;41155;39.768;2.712;2023-04-01T23:31:56;19.58;;;6.10;;
55290;SDS011;41155;39.768;2.712;2023-04-01T23:34:32;17.08;;;5.90;;
55290;SDS011;41155;39.768;2.712;2023-04-01T23:37:11;15.15;;;5.88;;
55290;SDS011;41155;39.768;2.712;2023-04-01T23:39:39;10.52;;;4.90;;
55290;SDS011;41155;39.768;2.712;2023-04-01T23:42:27;14.23;;;5.55;;
55290;SDS011;41155;39.768;2.712;2023-04-01T23:44:58;19.92;;;8.15;;
55290;SDS011;41155;39.768;2.712;2023-04-01T23:47:45;12.02;;;6.47;;
55290;SDS011;41155;39.768;2.712;2023-04-01T23:50:19;13.73;;;5.43;;
55290;SDS011;41155;39.768;2.712;2023-04-01T23:52:49;12.77;;;6.68;;
55290;SDS011;41155;39.768;2.712;2023-04-01T23:55:24;17.48;;;6.30;;
